East Dereham, United Kingdom
Current Conditions -  °F | °C
As of 11:20 AM on Friday 28 Nov 2014 (Local Time) from EGSH Reporting Station
Haze Haze  
Wind Chill: 52°   Ceiling: 500
Heat Index: 52°   Visibility: 3mi
Dew Point: 50°   Wind: 15mph
Humidity: 94%   Direction: 90°E
Pressure: 29.68"   Gusts: NA
Location:  52.68°N, 0.93°E
Report Text: EGSH 281120Z 09013KT 060V130 5000 BR OVC005 11/10 Q1005 BECMG BKN012
Loading
Personal Weather Stations






























Interactive Weather Map New forecast layout! Learn more

10-Day Weather Forecast

Advertisements
Track Severe Weather on mobile